sensor_id;sensor_type;location;lat;lon;timestamp;pressure;altitude;pressure_sealevel;temperature;humidity
38852;BME280;24605;50.092;9.182;2023-04-01T00:01:42;96240.69;;;8.61;100.00
38852;BME280;24605;50.092;9.182;2023-04-01T00:04:09;96246.91;;;8.60;100.00
38852;BME280;24605;50.092;9.182;2023-04-01T00:06:37;96255.78;;;8.59;100.00
38852;BME280;24605;50.092;9.182;2023-04-01T00:09:03;96259.81;;;8.61;100.00
38852;BME280;24605;50.092;9.182;2023-04-01T00:11:30;96248.16;;;8.64;100.00
38852;BME280;24605;50.092;9.182;2023-04-01T00:13:56;96249.78;;;8.72;100.00
38852;BME280;24605;50.092;9.182;2023-04-01T00:16:23;96242.53;;;8.67;100.00
38852;BME280;24605;50.092;9.182;2023-04-01T00:18:50;96240.28;;;8.57;100.00
38852;BME280;24605;50.092;9.182;2023-04-01T00:21:17;96253.16;;;8.66;100.00
38852;BME280;24605;50.092;9.182;2023-04-01T00:23:45;96248.94;;;8.65;100.00
38852;BME280;24605;50.092;9.182;2023-04-01T00:26:11;96242.53;;;8.60;100.00
38852;BME280;24605;50.092;9.182;2023-04-01T00:28:39;96235.88;;;8.51;100.00
38852;BME280;24605;50.092;9.182;2023-04-01T00:31:06;96239.69;;;8.62;100.00
38852;BME280;24605;50.092;9.182;2023-04-01T00:33:33;96236.47;;;8.53;100.00
38852;BME280;24605;50.092;9.182;2023-04-01T00:36:06;96238.28;;;8.59;100.00
38852;BME280;24605;50.092;9.182;2023-04-01T00:38:33;96240.50;;;8.69;100.00
38852;BME280;24605;50.092;9.182;2023-04-01T00:41:01;96226.03;;;8.53;100.00
38852;BME280;24605;50.092;9.182;2023-04-01T00:43:28;96247.75;;;8.60;100.00
38852;BME280;24605;50.092;9.182;2023-04-01T00:45:54;96239.53;;;8.64;100.00
38852;BME280;24605;50.092;9.182;2023-04-01T00:48:23;96242.13;;;8.64;100.00
38852;BME280;24605;50.092;9.182;2023-04-01T00:50:54;96240.72;;;8.54;100.00
38852;BME280;24605;50.092;9.182;2023-04-01T00:53:23;96237.28;;;8.54;100.00
38852;BME280;24605;50.092;9.182;2023-04-01T00:55:54;96238.28;;;8.53;100.00
38852;BME280;24605;50.092;9.182;2023-04-01T00:58:27;96237.22;;;8.40;100.00
38852;BME280;24605;50.092;9.182;2023-04-01T01:00:57;96245.31;;;8.52;100.00
38852;BME280;24605;50.092;9.182;2023-04-01T01:03:25;96234.41;;;8.42;100.00
38852;BME280;24605;50.092;9.182;2023-04-01T01:06:05;96231.59;;;8.43;100.00
38852;BME280;24605;50.092;9.182;2023-04-01T01:08:49;96234.81;;;8.45;100.00
38852;BME280;24605;50.092;9.182;2023-04-01T01:11:22;96227.59;;;8.41;100.00
38852;BME280;24605;50.092;9.182;2023-04-01T01:13:57;96234.22;;;8.43;100.00
38852;BME280;24605;50.092;9.182;2023-04-01T01:16:26;96231.22;;;8.46;100.00
38852;BME280;24605;50.092;9.182;2023-04-01T01:18:56;96232.41;;;8.44;100.00
38852;BME280;24605;50.092;9.182;2023-04-01T01:21:38;96225.03;;;8.48;100.00
38852;BME280;24605;50.092;9.182;2023-04-01T01:24:25;96227.44;;;8.49;100.00
38852;BME280;24605;50.092;9.182;2023-04-01T01:27:01;96231.59;;;8.43;100.00
38852;BME280;24605;50.092;9.182;2023-04-01T01:32:41;96227.78;;;8.39;100.00
38852;BME280;24605;50.092;9.182;2023-04-01T01:35:18;96208.09;;;8.30;100.00
38852;BME280;24605;50.092;9.182;2023-04-01T01:37:49;96219.53;;;8.36;100.00
38852;BME280;24605;50.092;9.182;2023-04-01T01:40:17;96191.19;;;8.19;100.00
38852;BME280;24605;50.092;9.182;2023-04-01T01:42:47;96222.53;;;8.26;100.00
38852;BME280;24605;50.092;9.182;2023-04-01T01:45:16;96227.56;;;8.27;100.00
38852;BME280;24605;50.092;9.182;2023-04-01T01:47:45;96217.13;;;8.27;100.00
38852;BME280;24605;50.092;9.182;2023-04-01T01:50:15;96216.72;;;8.30;100.00
38852;BME280;24605;50.092;9.182;2023-04-01T01:52:42;96214.72;;;8.32;100.00
38852;BME280;24605;50.092;9.182;2023-04-01T01:55:25;96202.47;;;8.26;100.00
38852;BME280;24605;50.092;9.182;2023-04-01T01:57:52;96218.13;;;8.40;100.00
38852;BME280;24605;50.092;9.182;2023-04-01T02:00:21;96220.38;;;8.43;100.00
38852;BME280;24605;50.092;9.182;2023-04-01T02:02:48;96223.19;;;8.41;100.00
38852;BME280;24605;50.092;9.182;2023-04-01T02:05:20;96223.97;;;8.42;100.00
38852;BME280;24605;50.092;9.182;2023-04-01T02:07:49;96222.59;;;8.46;100.00
38852;BME280;24605;50.092;9.182;2023-04-01T02:10:21;96222.16;;;8.42;100.00
38852;BME280;24605;50.092;9.182;2023-04-01T02:12:50;96212.31;;;8.44;100.00
38852;BME280;24605;50.092;9.182;2023-04-01T02:15:21;96224.97;;;8.41;100.00
38852;BME280;24605;50.092;9.182;2023-04-01T02:17:49;96215.38;;;8.48;100.00
38852;BME280;24605;50.092;9.182;2023-04-01T02:20:20;96216.53;;;8.45;100.00
38852;BME280;24605;50.092;9.182;2023-04-01T02:22:49;96217.19;;;8.54;100.00
38852;BME280;24605;50.092;9.182;2023-04-01T02:25:19;96213.56;;;8.49;100.00
38852;BME280;24605;50.092;9.182;2023-04-01T02:27:46;96210.53;;;8.52;100.00
38852;BME280;24605;50.092;9.182;2023-04-01T02:30:14;96216.38;;;8.54;100.00
38852;BME280;24605;50.092;9.182;2023-04-01T02:32:42;96215.78;;;8.58;100.00
38852;BME280;24605;50.092;9.182;2023-04-01T02:35:10;96228.81;;;8.52;100.00
38852;BME280;24605;50.092;9.182;2023-04-01T02:37:39;96226.44;;;8.50;100.00
38852;BME280;24605;50.092;9.182;2023-04-01T02:40:10;96223.19;;;8.48;100.00
38852;BME280;24605;50.092;9.182;2023-04-01T02:42:37;96217.19;;;8.54;100.00
38852;BME280;24605;50.092;9.182;2023-04-01T02:45:04;96219.19;;;8.52;100.00
38852;BME280;24605;50.092;9.182;2023-04-01T02:47:31;96215.75;;;8.45;100.00
38852;BME280;24605;50.092;9.182;2023-04-01T02:49:58;96214.75;;;8.46;100.00
38852;BME280;24605;50.092;9.182;2023-04-01T02:52:24;96206.69;;;8.41;100.00
38852;BME280;24605;50.092;9.182;2023-04-01T02:54:53;96216.78;;;8.51;100.00
38852;BME280;24605;50.092;9.182;2023-04-01T02:57:20;96198.25;;;8.39;100.00
38852;BME280;24605;50.092;9.182;2023-04-01T02:59:46;96219.38;;;8.44;100.00
38852;BME280;24605;50.092;9.182;2023-04-01T03:02:13;96218.53;;;8.43;100.00
38852;BME280;24605;50.092;9.182;2023-04-01T03:04:40;96213.53;;;8.42;100.00
38852;BME280;24605;50.092;9.182;2023-04-01T03:07:07;96213.31;;;8.37;100.00
38852;BME280;24605;50.092;9.182;2023-04-01T03:09:35;96217.53;;;8.31;100.00
38852;BME280;24605;50.092;9.182;2023-04-01T03:12:03;96212.50;;;8.23;100.00
38852;BME280;24605;50.092;9.182;2023-04-01T03:14:29;96221.31;;;8.22;100.00
38852;BME280;24605;50.092;9.182;2023-04-01T03:16:56;96215.09;;;8.23;100.00
38852;BME280;24605;50.092;9.182;2023-04-01T03:19:22;96217.13;;;8.27;100.00
38852;BME280;24605;50.092;9.182;2023-04-01T03:21:49;96213.06;;;8.25;100.00
38852;BME280;24605;50.092;9.182;2023-04-01T03:24:15;96210.47;;;8.18;100.00
38852;BME280;24605;50.092;9.182;2023-04-01T03:26:42;96188.09;;;7.95;100.00
38852;BME280;24605;50.092;9.182;2023-04-01T03:29:09;96216.47;;;8.12;100.00
38852;BME280;24605;50.092;9.182;2023-04-01T03:31:36;96212.44;;;8.09;100.00
38852;BME280;24605;50.092;9.182;2023-04-01T03:34:02;96204.59;;;8.09;100.00
38852;BME280;24605;50.092;9.182;2023-04-01T03:36:29;96207.44;;;8.14;100.00
38852;BME280;24605;50.092;9.182;2023-04-01T03:38:55;96210.06;;;8.21;100.00
38852;BME280;24605;50.092;9.182;2023-04-01T03:41:22;96211.88;;;8.21;100.00
38852;BME280;24605;50.092;9.182;2023-04-01T03:43:48;96220.69;;;8.20;100.00
38852;BME280;24605;50.092;9.182;2023-04-01T03:46:19;96212.66;;;8.21;100.00
38852;BME280;24605;50.092;9.182;2023-04-01T03:48:45;96209.25;;;8.14;100.00
38852;BME280;24605;50.092;9.182;2023-04-01T03:51:12;96220.69;;;8.13;100.00
38852;BME280;24605;50.092;9.182;2023-04-01T03:53:38;96209.81;;;8.09;100.00
38852;BME280;24605;50.092;9.182;2023-04-01T03:56:06;96203.38;;;7.98;100.00
38852;BME280;24605;50.092;9.182;2023-04-01T03:58:33;96206.38;;;7.95;100.00
38852;BME280;24605;50.092;9.182;2023-04-01T04:00:59;96211.34;;;7.83;100.00
38852;BME280;24605;50.092;9.182;2023-04-01T04:03:27;96211.13;;;7.85;100.00
38852;BME280;24605;50.092;9.182;2023-04-01T04:05:54;96152.81;;;7.51;100.00
38852;BME280;24605;50.092;9.182;2023-04-01T04:08:21;96190.81;;;7.67;100.00
38852;BME280;24605;50.092;9.182;2023-04-01T04:10:54;96202.91;;;7.75;100.00
38852;BME280;24605;50.092;9.182;2023-04-01T04:13:21;96161.63;;;7.43;100.00
38852;BME280;24605;50.092;9.182;2023-04-01T04:15:47;96209.28;;;7.65;100.00
38852;BME280;24605;50.092;9.182;2023-04-01T04:18:14;96202.03;;;7.67;100.00
38852;BME280;24605;50.092;9.182;2023-04-01T04:20:44;96206.47;;;7.67;100.00
38852;BME280;24605;50.092;9.182;2023-04-01T04:23:12;96201.19;;;7.53;100.00
38852;BME280;24605;50.092;9.182;2023-04-01T04:25:38;96206.41;;;7.53;100.00
38852;BME280;24605;50.092;9.182;2023-04-01T04:28:05;96192.50;;;7.46;100.00
38852;BME280;24605;50.092;9.182;2023-04-01T04:30:31;96204.41;;;7.56;100.00
38852;BME280;24605;50.092;9.182;2023-04-01T04:32:58;96201.38;;;7.52;100.00
38852;BME280;24605;50.092;9.182;2023-04-01T04:35:24;96191.19;;;7.57;100.00
38852;BME280;24605;50.092;9.182;2023-04-01T04:37:52;96208.25;;;7.60;100.00
38852;BME280;24605;50.092;9.182;2023-04-01T04:40:19;96204.22;;;7.57;100.00
38852;BME280;24605;50.092;9.182;2023-04-01T04:42:45;96193.78;;;7.57;100.00
38852;BME280;24605;50.092;9.182;2023-04-01T04:45:12;96202.78;;;7.55;100.00
38852;BME280;24605;50.092;9.182;2023-04-01T04:47:38;96204.22;;;7.57;100.00
38852;BME280;24605;50.092;9.182;2023-04-01T04:50:06;96197.59;;;7.61;100.00
38852;BME280;24605;50.092;9.182;2023-04-01T04:52:33;96199.59;;;7.59;100.00
38852;BME280;24605;50.092;9.182;2023-04-01T04:55:01;96192.00;;;7.64;100.00
38852;BME280;24605;50.092;9.182;2023-04-01T04:57:28;96201.44;;;7.65;100.00
38852;BME280;24605;50.092;9.182;2023-04-01T04:59:54;96196.41;;;7.64;100.00
38852;BME280;24605;50.092;9.182;2023-04-01T05:02:21;96192.63;;;7.66;100.00
38852;BME280;24605;50.092;9.182;2023-04-01T05:04:47;96191.03;;;7.72;100.00
38852;BME280;24605;50.092;9.182;2023-04-01T05:07:13;96207.50;;;7.73;100.00
38852;BME280;24605;50.092;9.182;2023-04-01T05:09:40;96202.09;;;7.81;100.00
38852;BME280;24605;50.092;9.182;2023-04-01T05:12:08;96180.41;;;7.74;100.00
38852;BME280;24605;50.092;9.182;2023-04-01T05:14:36;96196.94;;;7.88;100.00
38852;BME280;24605;50.092;9.182;2023-04-01T05:17:03;96191.72;;;7.88;100.00
38852;BME280;24605;50.092;9.182;2023-04-01T05:19:30;96203.38;;;7.98;100.00
38852;BME280;24605;50.092;9.182;2023-04-01T05:21:56;96187.91;;;7.90;100.00
38852;BME280;24605;50.092;9.182;2023-04-01T05:24:23;96193.31;;;7.95;100.00
38852;BME280;24605;50.092;9.182;2023-04-01T05:26:49;96198.53;;;7.95;100.00
38852;BME280;24605;50.092;9.182;2023-04-01T05:29:17;96197.53;;;7.96;100.00
38852;BME280;24605;50.092;9.182;2023-04-01T05:31:44;96180.03;;;7.83;100.00
38852;BME280;24605;50.092;9.182;2023-04-01T05:34:10;96199.31;;;7.82;100.00
38852;BME280;24605;50.092;9.182;2023-04-01T05:36:37;96189.09;;;7.88;100.00
38852;BME280;24605;50.092;9.182;2023-04-01T05:39:03;96191.66;;;7.74;100.00
38852;BME280;24605;50.092;9.182;2023-04-01T05:41:30;96170.75;;;7.61;100.00
38852;BME280;24605;50.092;9.182;2023-04-01T05:43:56;96195.28;;;7.80;100.00
38852;BME280;24605;50.092;9.182;2023-04-01T05:46:24;96193.69;;;7.86;100.00
38852;BME280;24605;50.092;9.182;2023-04-01T05:48:50;96202.28;;;7.73;100.00
38852;BME280;24605;50.092;9.182;2023-04-01T05:51:17;96209.09;;;7.74;100.00
38852;BME280;24605;50.092;9.182;2023-04-01T05:53:44;96186.22;;;7.69;100.00
38852;BME280;24605;50.092;9.182;2023-04-01T05:56:10;96197.69;;;7.75;100.00
38852;BME280;24605;50.092;9.182;2023-04-01T05:58:37;96199.25;;;7.69;100.00
38852;BME280;24605;50.092;9.182;2023-04-01T06:01:06;96201.47;;;7.72;100.00
38852;BME280;24605;50.092;9.182;2023-04-01T06:03:34;96210.91;;;7.73;100.00
38852;BME280;24605;50.092;9.182;2023-04-01T06:06:01;96199.25;;;7.69;100.00
38852;BME280;24605;50.092;9.182;2023-04-01T06:08:30;96205.06;;;7.64;100.00
38852;BME280;24605;50.092;9.182;2023-04-01T06:11:05;96200.22;;;7.61;100.00
38852;BME280;24605;50.092;9.182;2023-04-01T06:13:55;96197.41;;;7.63;100.00
38852;BME280;24605;50.092;9.182;2023-04-01T06:16:34;96209.09;;;7.74;100.00
38852;BME280;24605;50.092;9.182;2023-04-01T06:19:18;96211.09;;;7.72;100.00
38852;BME280;24605;50.092;9.182;2023-04-01T06:24:59;96214.13;;;7.75;100.00
38852;BME280;24605;50.092;9.182;2023-04-01T06:27:40;96208.13;;;7.81;100.00
38852;BME280;24605;50.092;9.182;2023-04-01T06:30:32;96216.53;;;7.77;100.00
38852;BME280;24605;50.092;9.182;2023-04-01T06:33:30;96206.09;;;7.70;100.00
38852;BME280;24605;50.092;9.182;2023-04-01T06:36:19;96215.88;;;7.61;100.00
38852;BME280;24605;50.092;9.182;2023-04-01T06:39:00;96203.19;;;7.51;100.00
38852;BME280;24605;50.092;9.182;2023-04-01T06:41:56;96214.88;;;7.62;100.00
38852;BME280;24605;50.092;9.182;2023-04-01T06:44:35;96195.94;;;7.47;100.00
38852;BME280;24605;50.092;9.182;2023-04-01T06:47:14;96221.28;;;7.60;100.00
38852;BME280;24605;50.092;9.182;2023-04-01T06:49:52;96211.19;;;7.50;100.00
38852;BME280;24605;50.092;9.182;2023-04-01T06:52:26;96208.41;;;7.58;100.00
38852;BME280;24605;50.092;9.182;2023-04-01T06:55:02;96213.22;;;7.55;100.00
38852;BME280;24605;50.092;9.182;2023-04-01T06:57:41;96214.25;;;7.60;100.00
38852;BME280;24605;50.092;9.182;2023-04-01T07:00:13;96213.25;;;7.61;100.00
38852;BME280;24605;50.092;9.182;2023-04-01T07:02:46;96201.88;;;7.76;100.00
38852;BME280;24605;50.092;9.182;2023-04-01T07:05:19;96200.88;;;7.77;100.00
38852;BME280;24605;50.092;9.182;2023-04-01T07:07:48;96201.28;;;7.74;100.00
38852;BME280;24605;50.092;9.182;2023-04-01T07:10:20;96202.72;;;7.83;100.00
38852;BME280;24605;50.092;9.182;2023-04-01T07:12:51;96192.13;;;7.91;100.00
38852;BME280;24605;50.092;9.182;2023-04-01T07:15:23;96203.97;;;7.94;100.00
38852;BME280;24605;50.092;9.182;2023-04-01T07:17:55;96204.16;;;7.92;100.00
38852;BME280;24605;50.092;9.182;2023-04-01T07:20:25;96202.34;;;7.93;100.00
38852;BME280;24605;50.092;9.182;2023-04-01T07:22:56;96208.31;;;7.80;100.00
38852;BME280;24605;50.092;9.182;2023-04-01T07:25:27;96207.38;;;7.88;100.00
38852;BME280;24605;50.092;9.182;2023-04-01T07:28:01;96181.63;;;7.71;100.00
38852;BME280;24605;50.092;9.182;2023-04-01T07:30:33;96201.72;;;7.84;100.00
38852;BME280;24605;50.092;9.182;2023-04-01T07:33:11;96197.53;;;7.96;100.00
38852;BME280;24605;50.092;9.182;2023-04-01T07:35:46;96217.63;;;7.96;100.00
38852;BME280;24605;50.092;9.182;2023-04-01T07:38:22;96208.63;;;8.05;100.00
38852;BME280;24605;50.092;9.182;2023-04-01T07:40:58;96199.78;;;7.99;100.00
38852;BME280;24605;50.092;9.182;2023-04-01T07:43:40;96197.47;;;7.76;100.00
38852;BME280;24605;50.092;9.182;2023-04-01T07:46:17;96207.38;;;7.94;100.00
38852;BME280;24605;50.092;9.182;2023-04-01T07:48:54;96196.06;;;7.74;100.00
38852;BME280;24605;50.092;9.182;2023-04-01T07:51:26;96222.84;;;8.03;100.00
38852;BME280;24605;50.092;9.182;2023-04-01T07:54:00;96207.78;;;7.91;100.00
38852;BME280;24605;50.092;9.182;2023-04-01T07:56:32;96221.25;;;8.08;100.00
38852;BME280;24605;50.092;9.182;2023-04-01T07:59:03;96223.84;;;7.95;100.00
38852;BME280;24605;50.092;9.182;2023-04-01T08:01:39;96236.06;;;7.94;100.00
38852;BME280;24605;50.092;9.182;2023-04-01T08:04:22;96209.97;;;7.88;100.00
38852;BME280;24605;50.092;9.182;2023-04-01T08:06:56;96232.66;;;7.94;100.00
38852;BME280;24605;50.092;9.182;2023-04-01T08:09:31;96224.47;;;8.04;100.00
38852;BME280;24605;50.092;9.182;2023-04-01T08:12:08;96225.41;;;7.89;100.00
38852;BME280;24605;50.092;9.182;2023-04-01T08:14:47;96220.66;;;7.99;100.00
38852;BME280;24605;50.092;9.182;2023-04-01T08:17:21;96229.06;;;7.95;100.00
38852;BME280;24605;50.092;9.182;2023-04-01T08:20:07;96238.34;;;8.04;100.00
38852;BME280;24605;50.092;9.182;2023-04-01T08:22:40;96237.34;;;8.12;100.00
38852;BME280;24605;50.092;9.182;2023-04-01T08:25:14;96235.97;;;8.23;100.00
38852;BME280;24605;50.092;9.182;2023-04-01T08:27:45;96248.59;;;8.12;100.00
38852;BME280;24605;50.092;9.182;2023-04-01T08:30:18;96247.78;;;8.05;100.00
38852;BME280;24605;50.092;9.182;2023-04-01T08:32:48;96240.16;;;8.10;100.00
38852;BME280;24605;50.092;9.182;2023-04-01T08:35:22;96232.88;;;7.99;100.00
38852;BME280;24605;50.092;9.182;2023-04-01T08:37:54;96243.13;;;8.00;100.00
38852;BME280;24605;50.092;9.182;2023-04-01T08:40:37;96234.81;;;7.83;100.00
38852;BME280;24605;50.092;9.182;2023-04-01T08:43:09;96249.31;;;7.93;100.00
38852;BME280;24605;50.092;9.182;2023-04-01T08:45:48;96231.97;;;7.72;100.00
38852;BME280;24605;50.092;9.182;2023-04-01T08:48:52;96244.31;;;7.91;100.00
38852;BME280;24605;50.092;9.182;2023-04-01T08:54:44;96255.94;;;7.95;100.00
38852;BME280;24605;50.092;9.182;2023-04-01T08:57:17;96260.66;;;8.13;100.00
38852;BME280;24605;50.092;9.182;2023-04-01T08:59:57;96242.31;;;8.00;100.00
38852;BME280;24605;50.092;9.182;2023-04-01T09:02:46;96245.13;;;7.98;100.00
38852;BME280;24605;50.092;9.182;2023-04-01T09:05:31;96263.69;;;8.24;100.00
38852;BME280;24605;50.092;9.182;2023-04-01T09:08:08;96268.47;;;8.13;100.00
38852;BME280;24605;50.092;9.182;2023-04-01T09:10:55;96261.88;;;8.24;100.00
38852;BME280;24605;50.092;9.182;2023-04-01T09:13:36;96269.72;;;8.24;100.00
38852;BME280;24605;50.092;9.182;2023-04-01T09:16:15;96231.72;;;8.15;100.00
38852;BME280;24605;50.092;9.182;2023-04-01T09:18:59;96262.59;;;8.60;100.00
38852;BME280;24605;50.092;9.182;2023-04-01T09:21:44;96259.81;;;8.61;100.00
38852;BME280;24605;50.092;9.182;2023-04-01T09:24:30;96262.81;;;8.65;100.00
38852;BME280;24605;50.092;9.182;2023-04-01T09:27:05;96262.84;;;8.85;100.00
38852;BME280;24605;50.092;9.182;2023-04-01T09:29:54;96269.06;;;8.84;100.00
38852;BME280;24605;50.092;9.182;2023-04-01T09:32:52;96270.09;;;8.76;100.00
38852;BME280;24605;50.092;9.182;2023-04-01T09:35:23;96270.47;;;8.93;100.00
38852;BME280;24605;50.092;9.182;2023-04-01T09:38:00;96252.19;;;8.93;100.00
38852;BME280;24605;50.092;9.182;2023-04-01T09:40:38;96261.81;;;8.66;100.00
38852;BME280;24605;50.092;9.182;2023-04-01T09:43:34;96278.28;;;8.67;100.00
38852;BME280;24605;50.092;9.182;2023-04-01T09:46:11;96272.47;;;8.58;100.00
38852;BME280;24605;50.092;9.182;2023-04-01T09:49:08;96274.28;;;8.64;100.00
38852;BME280;24605;50.092;9.182;2023-04-01T09:51:46;96257.91;;;8.42;100.00
38852;BME280;24605;50.092;9.182;2023-04-01T09:54:32;96254.09;;;8.44;100.00
38852;BME280;24605;50.092;9.182;2023-04-01T09:57:50;96278.44;;;8.52;100.00
38852;BME280;24605;50.092;9.182;2023-04-01T10:00:44;96273.63;;;8.55;100.00
38852;BME280;24605;50.092;9.182;2023-04-01T10:03:49;96264.81;;;8.50;100.00
38852;BME280;24605;50.092;9.182;2023-04-01T10:06:48;96269.66;;;8.80;100.00
38852;BME280;24605;50.092;9.182;2023-04-01T10:09:54;96272.31;;;8.93;100.00
38852;BME280;24605;50.092;9.182;2023-04-01T10:12:52;96285.56;;;8.91;100.00
38852;BME280;24605;50.092;9.182;2023-04-01T10:16:02;96281.13;;;8.85;100.00
38852;BME280;24605;50.092;9.182;2023-04-01T10:18:40;96278.13;;;8.82;100.00
38852;BME280;24605;50.092;9.182;2023-04-01T10:21:42;96281.94;;;8.79;100.00
38852;BME280;24605;50.092;9.182;2023-04-01T10:27:54;96282.94;;;8.91;100.00
38852;BME280;24605;50.092;9.182;2023-04-01T10:30:54;96226.34;;;8.30;100.00
38852;BME280;24605;50.092;9.182;2023-04-01T10:33:58;96285.91;;;8.55;100.00
38852;BME280;24605;50.092;9.182;2023-04-01T10:36:50;96290.53;;;8.59;100.00
38852;BME280;24605;50.092;9.182;2023-04-01T10:39:38;96291.97;;;8.69;100.00
38852;BME280;24605;50.092;9.182;2023-04-01T10:48:51;96291.78;;;8.90;100.00
38852;BME280;24605;50.092;9.182;2023-04-01T10:54:49;96273.50;;;8.90;100.00
38852;BME280;24605;50.092;9.182;2023-04-01T10:58:01;96275.13;;;8.98;100.00
38852;BME280;24605;50.092;9.182;2023-04-01T11:01:00;96288.78;;;8.93;100.00
38852;BME280;24605;50.092;9.182;2023-04-01T11:04:00;96280.13;;;8.86;100.00
38852;BME280;24605;50.092;9.182;2023-04-01T11:06:58;96267.84;;;8.67;100.00
38852;BME280;24605;50.092;9.182;2023-04-01T11:10:06;96286.34;;;8.72;100.00
38852;BME280;24605;50.092;9.182;2023-04-01T11:16:09;96277.72;;;8.85;100.00
38852;BME280;24605;50.092;9.182;2023-04-01T11:19:00;96289.16;;;8.64;100.00
38852;BME280;24605;50.092;9.182;2023-04-01T11:21:49;96287.13;;;8.59;100.00
38852;BME280;24605;50.092;9.182;2023-04-01T11:24:47;96299.00;;;8.68;100.00
38852;BME280;24605;50.092;9.182;2023-04-01T11:27:29;96293.97;;;8.73;100.00
38852;BME280;24605;50.092;9.182;2023-04-01T11:30:16;96295.03;;;8.86;100.00
38852;BME280;24605;50.092;9.182;2023-04-01T11:32:51;96301.63;;;8.95;100.00
38852;BME280;24605;50.092;9.182;2023-04-01T11:35:32;96301.47;;;8.97;100.00
38852;BME280;24605;50.092;9.182;2023-04-01T11:38:14;96297.84;;;9.18;100.00
38852;BME280;24605;50.092;9.182;2023-04-01T11:40:48;96303.66;;;9.33;100.00
38852;BME280;24605;50.092;9.182;2023-04-01T11:43:24;96298.84;;;9.23;100.00
38852;BME280;24605;50.092;9.182;2023-04-01T11:46:01;96288.00;;;9.13;100.00
38852;BME280;24605;50.092;9.182;2023-04-01T11:48:37;96311.72;;;9.32;100.00
38852;BME280;24605;50.092;9.182;2023-04-01T11:51:31;96307.09;;;9.14;100.00
38852;BME280;24605;50.092;9.182;2023-04-01T11:54:05;96304.09;;;9.23;100.00
38852;BME280;24605;50.092;9.182;2023-04-01T11:56:53;96312.53;;;9.46;100.00
38852;BME280;24605;50.092;9.182;2023-04-01T11:59:45;96319.16;;;9.41;100.00
38852;BME280;24605;50.092;9.182;2023-04-01T12:02:20;96316.72;;;9.53;100.00
38852;BME280;24605;50.092;9.182;2023-04-01T12:05:14;96307.09;;;9.40;100.00
38852;BME280;24605;50.092;9.182;2023-04-01T12:07:57;96324.41;;;9.55;100.00
38852;BME280;24605;50.092;9.182;2023-04-01T12:10:36;96326.59;;;9.58;100.00
38852;BME280;24605;50.092;9.182;2023-04-01T12:13:14;96330.41;;;9.55;100.00
38852;BME280;24605;50.092;9.182;2023-04-01T12:15:56;96328.22;;;9.46;100.00
38852;BME280;24605;50.092;9.182;2023-04-01T12:18:34;96327.81;;;9.55;100.00
38852;BME280;24605;50.092;9.182;2023-04-01T12:21:11;96333.03;;;9.62;100.00
38852;BME280;24605;50.092;9.182;2023-04-01T12:23:59;96327.00;;;9.55;100.00
38852;BME280;24605;50.092;9.182;2023-04-01T12:26:41;96329.19;;;9.65;100.00
38852;BME280;24605;50.092;9.182;2023-04-01T12:29:23;96328.78;;;9.75;100.00
38852;BME280;24605;50.092;9.182;2023-04-01T12:32:03;96318.13;;;9.76;100.00
38852;BME280;24605;50.092;9.182;2023-04-01T12:34:54;96329.38;;;9.77;100.00
38852;BME280;24605;50.092;9.182;2023-04-01T12:37:35;96331.03;;;9.57;100.00
38852;BME280;24605;50.092;9.182;2023-04-01T12:40:24;96316.53;;;9.62;100.00
38852;BME280;24605;50.092;9.182;2023-04-01T12:43:02;96321.75;;;9.68;100.00
38852;BME280;24605;50.092;9.182;2023-04-01T12:45:34;96328.81;;;9.54;100.00
38852;BME280;24605;50.092;9.182;2023-04-01T12:48:12;96336.25;;;9.51;100.00
38852;BME280;24605;50.092;9.182;2023-04-01T12:50:57;96337.06;;;9.51;100.00
38852;BME280;24605;50.092;9.182;2023-04-01T12:53:40;96328.81;;;9.54;100.00
38852;BME280;24605;50.092;9.182;2023-04-01T12:56:14;96344.28;;;9.63;100.00
38852;BME280;24605;50.092;9.182;2023-04-01T12:58:56;96318.16;;;9.49;100.00
38852;BME280;24605;50.092;9.182;2023-04-01T13:01:55;96332.81;;;9.64;100.00
38852;BME280;24605;50.092;9.182;2023-04-01T13:04:48;96340.88;;;9.62;100.00
38852;BME280;24605;50.092;9.182;2023-04-01T13:07:42;96334.84;;;9.41;100.00
38852;BME280;24605;50.092;9.182;2023-04-01T13:10:19;96343.50;;;9.35;100.00
38852;BME280;24605;50.092;9.182;2023-04-01T13:15:58;96344.91;;;9.24;100.00
38852;BME280;24605;50.092;9.182;2023-04-01T13:18:37;96359.19;;;9.29;100.00
38852;BME280;24605;50.092;9.182;2023-04-01T13:21:10;96358.38;;;9.21;100.00
38852;BME280;24605;50.092;9.182;2023-04-01T13:23:52;96358.00;;;9.24;100.00
38852;BME280;24605;50.092;9.182;2023-04-01T13:26:27;96349.72;;;9.28;100.00
38852;BME280;24605;50.092;9.182;2023-04-01T13:29:04;96350.13;;;9.18;100.00
38852;BME280;24605;50.092;9.182;2023-04-01T13:31:50;96358.59;;;9.20;100.00
38852;BME280;24605;50.092;9.182;2023-04-01T13:34:29;96355.97;;;9.20;100.00
38852;BME280;24605;50.092;9.182;2023-04-01T13:37:09;96361.63;;;9.23;100.00
38852;BME280;24605;50.092;9.182;2023-04-01T13:39:49;96362.03;;;9.34;100.00
38852;BME280;24605;50.092;9.182;2023-04-01T13:42:23;96363.63;;;9.48;100.00
38852;BME280;24605;50.092;9.182;2023-04-01T13:44:57;96356.19;;;9.45;100.00
38852;BME280;24605;50.092;9.182;2023-04-01T13:47:52;96331.03;;;9.37;100.00
38852;BME280;24605;50.092;9.182;2023-04-01T13:50:32;96359.78;;;9.78;100.00
38852;BME280;24605;50.092;9.182;2023-04-01T13:53:25;96375.31;;;9.66;100.00
38852;BME280;24605;50.092;9.182;2023-04-01T13:56:08;96365.63;;;9.46;100.00
38852;BME280;24605;50.092;9.182;2023-04-01T13:58:51;96372.88;;;9.44;100.00
38852;BME280;24605;50.092;9.182;2023-04-01T14:01:32;96384.16;;;9.65;100.00
38852;BME280;24605;50.092;9.182;2023-04-01T14:04:29;96371.47;;;9.68;100.00
38852;BME280;24605;50.092;9.182;2023-04-01T14:07:04;96377.09;;;9.79;100.00
38852;BME280;24605;50.092;9.182;2023-04-01T14:09:45;96381.31;;;9.93;100.00
38852;BME280;24605;50.092;9.182;2023-04-01T14:12:28;96383.28;;;10.18;100.00
38852;BME280;24605;50.092;9.182;2023-04-01T14:15:23;96367.50;;;10.45;100.00